createdAt,value
2022-10-06T00:01:52.021Z,101605.31
2022-10-06T00:04:56.739Z,101613.28
2022-10-06T00:08:02.193Z,101599.34
2022-10-06T00:11:07.774Z,101603.03
2022-10-06T00:14:12.322Z,101623.31
2022-10-06T00:17:16.896Z,101604.78
2022-10-06T00:20:21.781Z,101588.00
2022-10-06T00:23:27.495Z,101606.50
2022-10-06T00:26:31.991Z,101598.22
2022-10-06T00:29:37.818Z,101606.72
2022-10-06T00:32:42.619Z,101600.53
2022-10-06T00:35:47.337Z,101609.38
2022-10-06T00:38:52.171Z,101614.47
2022-10-06T00:41:56.914Z,101610.28
2022-10-06T00:45:05.815Z,101622.50
2022-10-06T00:48:17.319Z,101607.31
2022-10-06T00:51:23.148Z,101605.50
2022-10-06T00:54:29.261Z,101606.47
2022-10-06T00:57:37.785Z,101599.06
2022-10-06T01:00:45.516Z,101598.47
2022-10-06T01:03:58.331Z,101595.44
2022-10-06T01:07:13.283Z,101598.78
2022-10-06T01:10:18.004Z,101580.75
2022-10-06T01:13:23.042Z,101586.03
2022-10-06T01:16:33.265Z,101587.63
2022-10-06T01:20:12.426Z,101598.78
2022-10-06T01:23:17.914Z,101584.16
2022-10-06T01:26:27.800Z,101583.31
2022-10-06T01:29:34.981Z,101572.22
2022-10-06T01:32:54.662Z,101571.50
2022-10-06T01:36:00.531Z,101560.31
2022-10-06T01:39:05.990Z,101573.75
2022-10-06T01:42:11.930Z,101556.56
2022-10-06T01:45:17.224Z,101536.22
2022-10-06T01:48:21.855Z,101555.94
2022-10-06T01:51:31.768Z,101529.94
2022-10-06T01:54:39.824Z,101528.19
2022-10-06T01:57:45.309Z,101533.38
2022-10-06T02:00:51.799Z,101543.44
2022-10-06T02:03:59.253Z,101530.75
2022-10-06T02:07:04.762Z,101535.19
2022-10-06T02:10:17.410Z,101541.22
2022-10-06T02:13:26.666Z,101540.13
2022-10-06T02:16:39.280Z,101541.13
2022-10-06T02:19:43.986Z,101536.41
2022-10-06T02:22:48.480Z,101530.47
2022-10-06T02:26:06.880Z,101522.78
2022-10-06T02:29:12.600Z,101529.28
2022-10-06T02:32:16.995Z,101533.19
2022-10-06T02:35:22.195Z,101522.41
2022-10-06T02:38:28.128Z,101525.97
2022-10-06T02:41:33.542Z,101521.06
2022-10-06T02:44:41.057Z,101517.41
2022-10-06T02:47:45.777Z,101511.75
2022-10-06T02:50:59.516Z,101509.91
2022-10-06T02:54:04.137Z,101494.69
2022-10-06T02:57:09.007Z,101483.69
2022-10-06T03:00:15.717Z,101488.25
2022-10-06T03:03:25.095Z,101489.72
2022-10-06T03:06:32.565Z,101492.88
2022-10-06T03:09:44.454Z,101473.41
2022-10-06T03:12:49.330Z,101478.38
2022-10-06T03:15:54.400Z,101481.88
2022-10-06T03:19:00.088Z,101465.22
2022-10-06T03:22:07.156Z,101475.88
2022-10-06T03:25:22.559Z,101476.44
2022-10-06T03:28:28.874Z,101471.94
2022-10-06T03:31:34.493Z,101473.75
2022-10-06T03:34:40.027Z,101455.94
2022-10-06T03:37:48.368Z,101465.56
2022-10-06T03:40:53.115Z,101460.63
2022-10-06T03:44:00.318Z,101462.91
2022-10-06T03:47:05.405Z,101459.78
2022-10-06T03:50:11.692Z,101453.22
2022-10-06T03:53:16.350Z,101422.16
2022-10-06T03:56:34.185Z,101419.59
2022-10-06T03:59:38.899Z,101437.09
2022-10-06T04:02:44.020Z,101413.75
2022-10-06T04:05:57.148Z,101440.81
2022-10-06T04:09:03.555Z,101424.72
2022-10-06T04:12:08.133Z,101436.91
2022-10-06T04:15:14.611Z,101425.25
2022-10-06T04:18:19.988Z,101417.06
2022-10-06T04:21:26.041Z,101405.59
2022-10-06T04:24:31.770Z,101403.84
2022-10-06T04:27:36.287Z,101403.88
2022-10-06T04:30:44.838Z,101410.91
2022-10-06T04:33:53.097Z,101419.44
2022-10-06T04:36:58.771Z,101387.47
2022-10-06T04:40:03.721Z,101386.03
2022-10-06T04:43:10.198Z,101391.88
2022-10-06T04:46:37.778Z,101399.63
2022-10-06T04:49:42.261Z,101383.72
2022-10-06T04:52:47.339Z,101390.03
2022-10-06T04:56:11.539Z,101401.75
2022-10-06T04:59:16.410Z,101397.47
2022-10-06T05:02:23.579Z,101393.88
2022-10-06T05:05:30.766Z,101383.09
2022-10-06T05:08:36.903Z,101372.16
2022-10-06T05:11:41.309Z,101393.44
2022-10-06T05:14:49.111Z,101375.56
2022-10-06T05:17:54.188Z,101380.78
2022-10-06T05:21:06.621Z,101381.88
2022-10-06T05:24:11.674Z,101377.34
2022-10-06T05:27:16.549Z,101373.44
2022-10-06T05:30:21.151Z,101367.41
2022-10-06T05:33:27.384Z,101379.66
2022-10-06T05:36:34.667Z,101384.19
2022-10-06T05:39:40.293Z,101395.91
2022-10-06T05:42:45.293Z,101378.28
2022-10-06T05:45:58.748Z,101383.50
2022-10-06T05:49:09.998Z,101381.13
2022-10-06T05:52:17.485Z,101381.25
2022-10-06T05:55:22.382Z,101372.63
2022-10-06T05:58:27.844Z,101375.84
2022-10-06T06:01:41.659Z,101372.22
2022-10-06T06:04:56.759Z,101356.88
2022-10-06T06:08:01.798Z,101372.19
2022-10-06T06:11:08.592Z,101379.44
2022-10-06T06:14:20.824Z,101389.28
2022-10-06T06:17:25.817Z,101360.78
2022-10-06T06:20:30.336Z,101354.47
2022-10-06T06:23:40.880Z,101363.03
2022-10-06T06:26:45.245Z,101376.34
2022-10-06T06:29:50.419Z,101381.63
2022-10-06T06:32:58.969Z,101348.56
2022-10-06T06:36:04.875Z,101389.13
2022-10-06T06:39:12.299Z,101389.19
2022-10-06T06:42:17.656Z,101379.69
2022-10-06T06:45:25.084Z,101397.41
2022-10-06T06:48:38.794Z,101397.94
2022-10-06T06:51:46.013Z,101395.47
2022-10-06T06:54:52.590Z,101378.25
2022-10-06T06:57:57.145Z,101404.47
2022-10-06T07:01:09.303Z,101407.06
2022-10-06T07:04:16.878Z,101405.69
2022-10-06T07:07:23.753Z,101402.47
2022-10-06T07:10:29.171Z,101407.81
2022-10-06T07:13:33.773Z,101403.41
2022-10-06T07:16:56.612Z,101404.22
2022-10-06T07:20:20.891Z,101390.09
2022-10-06T07:23:44.382Z,101395.25
2022-10-06T07:26:53.401Z,101401.22
2022-10-06T07:30:00.133Z,101390.59
2022-10-06T07:33:05.951Z,101410.03
2022-10-06T07:36:12.101Z,101404.00
2022-10-06T07:39:17.112Z,101396.03
2022-10-06T07:42:22.403Z,101389.88
2022-10-06T07:45:47.748Z,101420.75
2022-10-06T07:48:59.372Z,101411.94
2022-10-06T07:52:04.199Z,101367.19
2022-10-06T07:55:10.002Z,101421.13
2022-10-06T07:58:39.676Z,101411.50
2022-10-06T08:01:47.005Z,101386.00
2022-10-06T08:04:51.723Z,101420.28
2022-10-06T08:07:57.888Z,101392.19
2022-10-06T08:11:02.503Z,101407.19
2022-10-06T08:14:07.268Z,101409.00
2022-10-06T08:17:12.128Z,101416.06
2022-10-06T08:20:19.221Z,101416.06
2022-10-06T08:23:23.876Z,101398.44
2022-10-06T08:26:31.873Z,101428.41
2022-10-06T08:29:36.752Z,101425.78
2022-10-06T08:32:43.699Z,101416.94
2022-10-06T08:35:51.051Z,101434.56
2022-10-06T08:38:55.879Z,101431.91
2022-10-06T08:42:00.621Z,101429.25
2022-10-06T08:45:12.104Z,101420.31
2022-10-06T08:48:30.125Z,101446.75
2022-10-06T08:51:50.114Z,101447.63
2022-10-06T08:55:03.293Z,101451.06
2022-10-06T08:58:38.566Z,101446.53
2022-10-06T09:01:52.371Z,101410.28
2022-10-06T09:05:00.236Z,101441.88
2022-10-06T09:08:14.961Z,101454.13
2022-10-06T09:11:40.916Z,101443.56
2022-10-06T09:14:53.034Z,101455.75
2022-10-06T09:18:23.667Z,101438.72
2022-10-06T09:21:46.485Z,101468.44
2022-10-06T09:24:58.207Z,101466.38
2022-10-06T09:28:04.324Z,101458.34
2022-10-06T09:31:56.993Z,101451.28
2022-10-06T09:35:01.822Z,101469.00
2022-10-06T09:38:09.229Z,101465.38
2022-10-06T09:41:14.840Z,101468.94
2022-10-06T09:44:26.552Z,101478.34
2022-10-06T09:47:34.086Z,101485.38
2022-10-06T09:50:39.071Z,101473.66
2022-10-06T09:54:11.381Z,101479.81
2022-10-06T09:57:28.653Z,101473.16
2022-10-06T10:00:40.432Z,101489.28
2022-10-06T10:07:32.085Z,101497.94
2022-10-06T10:10:37.713Z,101487.66
2022-10-06T10:13:46.272Z,101499.66
2022-10-06T10:16:53.364Z,101501.31
2022-10-06T10:20:03.601Z,101504.38
2022-10-06T10:23:24.132Z,101497.31
2022-10-06T10:27:14.278Z,101503.81
2022-10-06T10:30:19.437Z,101496.63
2022-10-06T10:33:59.524Z,101512.69
2022-10-06T10:37:25.207Z,101523.19
2022-10-06T10:40:32.049Z,101496.84
2022-10-06T10:43:52.179Z,101516.22
2022-10-06T10:47:23.021Z,101511.34
2022-10-06T10:50:30.593Z,101520.28
2022-10-06T10:53:52.465Z,101520.09
2022-10-06T10:56:57.320Z,101523.13
2022-10-06T11:00:08.491Z,101525.88
2022-10-06T11:03:14.017Z,101507.13
2022-10-06T11:06:28.788Z,101515.75
2022-10-06T11:09:36.494Z,101520.88
2022-10-06T11:12:50.237Z,101515.88
2022-10-06T11:16:13.040Z,101524.06
2022-10-06T11:19:36.337Z,101519.44
2022-10-06T11:23:25.626Z,101535.94
2022-10-06T11:27:00.508Z,101538.72
2022-10-06T11:30:27.340Z,101524.19
2022-10-06T11:33:44.585Z,101530.38
2022-10-06T11:37:10.817Z,101522.50
2022-10-06T11:40:53.498Z,101521.78
2022-10-06T11:44:01.153Z,101519.19
2022-10-06T11:47:35.369Z,101504.63
2022-10-06T11:50:45.454Z,101514.03
2022-10-06T11:53:53.503Z,101520.66
2022-10-06T11:56:58.030Z,101514.59
2022-10-06T12:00:18.258Z,101524.19
2022-10-06T12:03:34.498Z,101519.53
2022-10-06T12:06:47.808Z,101523.22
2022-10-06T12:09:53.331Z,101518.06
2022-10-06T12:13:38.542Z,101519.03
2022-10-06T12:20:21.954Z,101518.75
2022-10-06T12:23:30.460Z,101519.75
2022-10-06T12:27:16.131Z,101520.09
2022-10-06T12:30:50.477Z,101504.22
2022-10-06T12:33:55.168Z,101520.50
2022-10-06T12:37:54.709Z,101517.88
2022-10-06T12:41:00.544Z,101502.63
2022-10-06T12:44:23.247Z,101502.00
2022-10-06T12:47:41.489Z,101498.31
2022-10-06T12:50:46.530Z,101503.25
2022-10-06T12:54:02.092Z,101519.38
2022-10-06T12:57:17.833Z,101515.59
2022-10-06T13:00:35.452Z,101505.16
2022-10-06T13:03:40.483Z,101523.50
2022-10-06T13:06:51.181Z,101508.16
2022-10-06T13:10:15.083Z,101513.84
2022-10-06T13:13:25.535Z,101503.72
2022-10-06T13:16:34.061Z,101516.59
2022-10-06T13:19:39.682Z,101519.38
2022-10-06T13:22:44.149Z,101529.31
2022-10-06T13:25:58.767Z,101508.72
2022-10-06T13:29:03.585Z,101515.56
2022-10-06T13:32:19.684Z,101516.84
2022-10-06T13:35:27.223Z,101535.59
2022-10-06T13:38:35.809Z,101531.66
2022-10-06T13:41:53.688Z,101515.63
2022-10-06T13:45:03.796Z,101535.22
2022-10-06T13:48:18.899Z,101521.13
2022-10-06T13:51:30.569Z,101498.09
2022-10-06T13:54:47.582Z,101514.81
2022-10-06T13:58:13.485Z,101540.03
2022-10-06T14:01:28.495Z,101525.81
2022-10-06T14:04:35.937Z,101511.25
2022-10-06T14:07:46.539Z,101536.06
2022-10-06T14:10:56.284Z,101524.25
2022-10-06T14:14:03.499Z,101508.47
2022-10-06T14:17:19.196Z,101507.41
2022-10-06T14:20:46.779Z,101531.31
2022-10-06T14:23:55.236Z,101522.72
2022-10-06T14:27:05.472Z,101456.97
2022-10-06T14:30:11.913Z,101537.84
2022-10-06T14:33:17.123Z,101526.69
2022-10-06T14:36:29.762Z,101530.59
2022-10-06T14:39:36.583Z,101532.94
2022-10-06T14:42:41.072Z,101503.69
2022-10-06T14:45:46.125Z,101539.38
2022-10-06T14:48:52.081Z,101531.91
2022-10-06T14:51:57.656Z,101524.69
2022-10-06T14:55:02.318Z,101540.56
2022-10-06T14:58:07.333Z,101530.97
2022-10-06T15:01:18.096Z,101534.91
2022-10-06T15:04:25.794Z,101530.84
2022-10-06T15:07:48.857Z,101521.69
2022-10-06T15:10:54.283Z,101520.03
2022-10-06T15:14:00.003Z,101531.91
2022-10-06T15:17:04.816Z,101528.22
2022-10-06T15:20:10.680Z,101530.69
2022-10-06T15:23:17.776Z,101533.44
2022-10-06T15:26:40.406Z,101512.69
2022-10-06T15:29:45.542Z,101523.59
2022-10-06T15:32:50.653Z,101526.97
2022-10-06T15:36:18.220Z,101524.47
2022-10-06T15:39:25.361Z,101532.91
2022-10-06T15:42:30.033Z,101525.50
2022-10-06T15:45:35.078Z,101527.06
2022-10-06T15:48:44.170Z,101519.59
2022-10-06T15:51:52.245Z,101536.78
2022-10-06T15:54:58.966Z,101530.81
2022-10-06T15:58:03.476Z,101520.00
2022-10-06T16:01:11.746Z,101518.59
2022-10-06T16:04:26.727Z,101502.81
2022-10-06T16:07:33.494Z,101501.78
2022-10-06T16:10:38.195Z,101504.13
2022-10-06T16:13:42.728Z,101502.38
2022-10-06T16:16:48.944Z,101503.22
2022-10-06T16:19:53.500Z,101510.78
2022-10-06T16:22:57.928Z,101502.13
2022-10-06T16:26:05.490Z,101508.63
2022-10-06T16:29:10.473Z,101511.19
2022-10-06T16:32:14.954Z,101509.19
2022-10-06T16:35:19.475Z,101515.19
2022-10-06T16:38:24.601Z,101506.31
2022-10-06T16:41:29.134Z,101520.66
2022-10-06T16:44:33.720Z,101512.28
2022-10-06T16:47:38.214Z,101513.75
2022-10-06T16:50:42.462Z,101513.88
2022-10-06T16:54:01.080Z,101499.97
2022-10-06T16:57:07.602Z,101505.44
2022-10-06T17:00:13.130Z,101521.59
2022-10-06T17:03:17.767Z,101503.28
2022-10-06T17:06:22.557Z,101488.97
2022-10-06T17:09:28.999Z,101526.44
2022-10-06T17:12:33.677Z,101508.56
2022-10-06T17:15:38.252Z,101505.63
2022-10-06T17:18:43.363Z,101525.19
2022-10-06T17:21:51.540Z,101524.34
2022-10-06T17:24:57.572Z,101507.56
2022-10-06T17:28:02.161Z,101518.69
2022-10-06T17:31:07.397Z,101523.72
2022-10-06T17:34:18.342Z,101525.13
2022-10-06T17:37:24.695Z,101522.13
2022-10-06T17:40:29.206Z,101525.56
2022-10-06T17:43:38.778Z,101526.22
2022-10-06T17:46:45.393Z,101525.69
2022-10-06T17:49:53.569Z,101492.59
2022-10-06T17:53:00.202Z,101527.03
2022-10-06T17:56:10.039Z,101511.06
2022-10-06T17:59:20.770Z,101527.81
2022-10-06T18:02:25.336Z,101501.66
2022-10-06T18:05:32.955Z,101514.38
2022-10-06T18:08:43.314Z,101510.75
2022-10-06T18:11:55.872Z,101525.25
2022-10-06T18:15:00.220Z,101522.88
2022-10-06T18:18:05.673Z,101530.06
2022-10-06T18:21:11.464Z,101501.16
2022-10-06T18:24:17.361Z,101532.66
2022-10-06T18:27:24.931Z,101529.44
2022-10-06T18:30:29.605Z,101531.44
2022-10-06T18:36:59.030Z,101529.78
2022-10-06T18:40:06.985Z,101528.88
2022-10-06T18:43:11.910Z,101521.69
2022-10-06T18:46:36.737Z,101517.50
2022-10-06T18:49:41.123Z,101531.47
2022-10-06T18:52:45.540Z,101530.34
2022-10-06T18:55:53.556Z,101514.53
2022-10-06T18:58:59.910Z,101517.88
2022-10-06T19:02:05.969Z,101538.13
2022-10-06T19:05:10.756Z,101521.88
2022-10-06T19:08:15.289Z,101523.78
2022-10-06T19:11:38.361Z,101525.13
2022-10-06T19:14:48.067Z,101534.41
2022-10-06T19:17:52.583Z,101537.19
2022-10-06T19:20:57.400Z,101521.00
2022-10-06T19:24:06.318Z,101532.44
2022-10-06T19:27:13.596Z,101538.34
2022-10-06T19:30:23.832Z,101536.75
2022-10-06T19:33:28.699Z,101543.94
2022-10-06T19:36:33.704Z,101523.41
2022-10-06T19:39:43.555Z,101513.91
2022-10-06T19:42:48.271Z,101542.25
2022-10-06T19:45:59.370Z,101531.50
2022-10-06T19:49:06.569Z,101534.09
2022-10-06T19:52:13.382Z,101551.41
2022-10-06T19:55:19.007Z,101524.19
2022-10-06T19:58:23.876Z,101551.94
2022-10-06T20:01:33.077Z,101553.59
2022-10-06T20:04:41.328Z,101555.72
2022-10-06T20:07:47.299Z,101551.63
2022-10-06T20:10:52.036Z,101562.72
2022-10-06T20:13:57.143Z,101554.75
2022-10-06T20:17:02.428Z,101561.66
2022-10-06T20:20:07.436Z,101543.13
2022-10-06T20:23:11.956Z,101565.09
2022-10-06T20:26:19.377Z,101569.59
2022-10-06T20:29:26.495Z,101545.72
2022-10-06T20:32:30.874Z,101524.47
2022-10-06T20:35:35.318Z,101573.50
2022-10-06T20:38:59.167Z,101563.44
2022-10-06T20:42:04.420Z,101564.66
2022-10-06T20:45:09.376Z,101579.19
2022-10-06T20:48:15.217Z,101587.59
2022-10-06T20:51:24.168Z,101568.06
2022-10-06T20:54:35.428Z,101589.03
2022-10-06T20:57:41.371Z,101579.06
2022-10-06T21:00:45.853Z,101573.94
2022-10-06T21:03:52.485Z,101587.19
2022-10-06T21:06:57.887Z,101583.78
2022-10-06T21:10:02.509Z,101576.25
2022-10-06T21:13:07.774Z,101578.38
2022-10-06T21:16:13.463Z,101583.78
2022-10-06T21:19:18.825Z,101587.97
2022-10-06T21:22:23.389Z,101580.38
2022-10-06T21:25:27.652Z,101589.34
2022-10-06T21:28:32.713Z,101583.94
2022-10-06T21:31:37.273Z,101581.28
2022-10-06T21:34:41.909Z,101593.50
2022-10-06T21:37:47.273Z,101595.00
2022-10-06T21:40:51.768Z,101592.53
2022-10-06T21:43:58.709Z,101601.22
2022-10-06T21:47:03.409Z,101596.94
2022-10-06T21:50:08.382Z,101598.31
2022-10-06T21:53:12.817Z,101599.84
2022-10-06T21:56:17.291Z,101596.72
2022-10-06T21:59:21.858Z,101587.78
2022-10-06T22:02:26.375Z,101565.84
2022-10-06T22:05:30.867Z,101573.50
2022-10-06T22:08:37.513Z,101604.78
2022-10-06T22:11:42.775Z,101604.25
2022-10-06T22:14:47.188Z,101611.41
2022-10-06T22:17:51.696Z,101607.84
2022-10-06T22:20:56.098Z,101593.88
2022-10-06T22:24:03.181Z,101602.59
2022-10-06T22:27:07.459Z,101592.97
2022-10-06T22:30:12.486Z,101551.41
2022-10-06T22:33:17.149Z,101587.44
2022-10-06T22:36:21.534Z,101599.38
2022-10-06T22:39:26.066Z,101614.00
2022-10-06T22:42:30.452Z,101586.50
2022-10-06T22:45:34.799Z,101600.34
2022-10-06T22:48:40.097Z,101598.81
2022-10-06T22:51:44.619Z,101590.69
2022-10-06T22:54:49.201Z,101600.53
2022-10-06T22:57:53.725Z,101585.59
2022-10-06T23:00:58.329Z,101608.00
2022-10-06T23:04:02.837Z,101614.22
2022-10-06T23:07:07.389Z,101609.88
2022-10-06T23:10:11.816Z,101608.22
2022-10-06T23:13:16.227Z,101607.34
2022-10-06T23:16:21.875Z,101610.53
2022-10-06T23:19:26.278Z,101612.69
2022-10-06T23:22:30.863Z,101598.09
2022-10-06T23:25:39.437Z,101614.69
2022-10-06T23:28:44.319Z,101616.53
2022-10-06T23:31:48.949Z,101605.78
2022-10-06T23:34:53.860Z,101610.41
2022-10-06T23:37:58.245Z,101605.84
2022-10-06T23:41:03.275Z,101605.44
2022-10-06T23:44:07.635Z,101600.28
2022-10-06T23:47:12.144Z,101599.72
2022-10-06T23:50:16.673Z,101597.19
2022-10-06T23:53:21.098Z,101608.03
2022-10-06T23:56:26.310Z,101594.03
2022-10-06T23:59:32.462Z,101550.88
